Time;durP1;ratioP1;P1;durP2;ratioP2;P2;SDS_P1;SDS_P2;PMS_P1;PMS_P2;Temp;Humidity;BMP_temperature;BMP_pressure;BME280_temperature;BME280_humidity;BME280_pressure;Samples;Min_cycle;Max_cycle;Signal;HPM_P1;HPM_P2
2023/11/07 00:00:10;;;;;;;12.35;1.67;;;;;;;8.20;100.00;100426.09;5005853;28;20050;-68
2023/11/07 00:02:35;;;;;;;7.43;2.17;;;;;;;8.11;100.00;100420.06;5004300;28;20080;-67
2023/11/07 00:05:01;;;;;;;4.63;1.45;;;;;;;8.16;100.00;100425.59;4989129;28;20037;-68
2023/11/07 00:19:16;;;;;;;6.45;1.48;;;;;;;8.23;100.00;100443.06;5022924;28;20094;-69
2023/11/07 00:21:41;;;;;;;10.27;1.60;;;;;;;8.21;100.00;100439.81;5039543;28;20041;-68
2023/11/07 00:24:07;;;;;;;7.38;1.45;;;;;;;8.12;100.00;100436.38;5022387;28;20068;-68
2023/11/07 00:26:34;;;;;;;6.03;1.45;;;;;;;8.08;100.00;100442.78;5038682;28;20059;-68
2023/11/07 00:28:59;;;;;;;7.60;1.35;;;;;;;8.02;100.00;100439.03;5014384;28;20029;-68
2023/11/07 00:31:25;;;;;;;4.57;1.48;;;;;;;8.03;100.00;100445.03;5012146;28;20060;-68
2023/11/07 00:33:50;;;;;;;6.60;1.23;;;;;;;8.04;100.00;100451.78;5008162;28;20041;-68
2023/11/07 00:36:16;;;;;;;9.77;1.70;;;;;;;8.04;100.00;100454.38;5025564;28;20036;-68
2023/11/07 00:38:45;;;;;;;6.63;1.48;;;;;;;8.02;100.00;100446.75;5009878;28;20438;-68
2023/11/07 00:41:10;;;;;;;9.93;1.63;;;;;;;8.01;100.00;100458.06;5003005;28;20411;-67
2023/11/07 00:43:37;;;;;;;7.38;1.67;;;;;;;7.96;100.00;100462.84;5004381;28;20041;-68
2023/11/07 00:46:03;;;;;;;8.40;1.50;;;;;;;7.99;100.00;100455.63;4990519;28;20048;-68
2023/11/07 00:48:29;;;;;;;7.25;1.38;;;;;;;8.03;100.00;100450.19;5005328;28;20124;-67
2023/11/07 00:50:54;;;;;;;10.90;2.13;;;;;;;7.94;100.00;100454.44;5001635;28;20103;-67
2023/11/07 00:53:20;;;;;;;7.97;1.27;;;;;;;8.01;100.00;100459.84;5004291;28;20040;-67
2023/11/07 00:55:46;;;;;;;6.82;1.20;;;;;;;7.91;100.00;100455.56;5004051;28;23037;-67
2023/11/07 00:58:11;;;;;;;7.88;2.17;;;;;;;7.81;100.00;100467.72;4994010;28;20071;-68
2023/11/07 01:00:37;;;;;;;3.35;1.45;;;;;;;7.83;100.00;100460.63;5004952;28;20038;-68
2023/11/07 01:03:02;;;;;;;4.45;1.10;;;;;;;7.76;100.00;100460.41;5018194;28;20444;-68
2023/11/07 01:05:28;;;;;;;5.57;1.52;;;;;;;7.70;100.00;100458.41;5005674;28;20042;-67
2023/11/07 01:07:53;;;;;;;6.60;1.42;;;;;;;7.70;100.00;100465.34;5004444;28;20483;-68
2023/11/07 01:10:19;;;;;;;10.00;1.50;;;;;;;7.82;100.00;100466.75;5020332;28;20049;-68
2023/11/07 01:12:45;;;;;;;9.25;2.55;;;;;;;7.80;100.00;100464.31;5003308;28;20044;-68
2023/11/07 01:15:11;;;;;;;11.07;1.77;;;;;;;7.90;100.00;100468.63;5024771;28;20033;-68
2023/11/07 01:17:39;;;;;;;5.68;1.33;;;;;;;7.84;100.00;100470.00;5006066;28;20072;-67
2023/11/07 01:20:09;;;;;;;7.32;1.50;;;;;;;7.87;100.00;100466.31;5008651;28;20044;-67
2023/11/07 01:22:36;;;;;;;7.15;1.40;;;;;;;7.75;100.00;100470.88;4992530;28;20041;-67
2023/11/07 01:25:04;;;;;;;6.03;1.33;;;;;;;7.71;100.00;100478.09;5008991;28;20037;-68
2023/11/07 01:27:31;;;;;;;7.47;1.50;;;;;;;7.67;100.00;100476.78;4991417;28;20041;-68
2023/11/07 01:29:57;;;;;;;10.27;1.70;;;;;;;7.73;100.00;100478.75;5026680;28;20037;-68
2023/11/07 01:32:23;;;;;;;8.10;1.35;;;;;;;7.70;100.00;100480.81;4994356;28;20468;-67
2023/11/07 01:34:48;;;;;;;5.05;1.50;;;;;;;7.63;100.00;100482.34;4992708;28;20037;-68
2023/11/07 01:37:14;;;;;;;7.68;1.65;;;;;;;7.69;100.00;100485.19;4995823;28;20541;-67
2023/11/07 01:39:39;;;;;;;4.63;1.50;;;;;;;7.67;100.00;100476.78;5010995;28;20039;-68
2023/11/07 01:42:07;;;;;;;5.70;1.30;;;;;;;7.62;100.00;100489.28;4994878;28;20038;-68
2023/11/07 01:44:37;;;;;;;6.22;1.77;;;;;;;7.69;100.00;100481.78;5009953;28;20049;-68
2023/11/07 01:47:02;;;;;;;5.55;1.77;;;;;;;7.66;100.00;100494.97;5012915;28;20103;-67
2023/11/07 01:49:28;;;;;;;5.22;1.48;;;;;;;7.62;100.00;100488.47;5045372;28;20037;-68
2023/11/07 01:51:57;;;;;;;5.88;1.42;;;;;;;7.53;100.00;100488.38;5025469;28;20048;-68
2023/11/07 01:54:25;;;;;;;4.78;1.40;;;;;;;7.54;100.00;100494.38;5043550;28;20112;-68
2023/11/07 01:56:52;;;;;;;9.45;1.33;;;;;;;7.52;100.00;100485.97;5011640;28;20426;-67
2023/11/07 01:59:18;;;;;;;6.10;1.60;;;;;;;7.58;100.00;100478.44;5025224;28;20017;-67
2023/11/07 02:01:47;;;;;;;8.90;1.55;;;;;;;7.49;100.00;100489.63;5008578;28;20041;-68
2023/11/07 02:04:12;;;;;;;7.97;1.38;;;;;;;7.47;100.00;100486.38;5023512;28;20030;-68
2023/11/07 02:06:38;;;;;;;2.78;1.50;;;;;;;7.49;100.00;100487.03;5008517;28;20052;-68
2023/11/07 02:09:06;;;;;;;7.88;1.58;;;;;;;7.44;100.00;100485.84;5009081;28;20037;-68
2023/11/07 02:11:38;;;;;;;5.63;1.88;;;;;;;7.38;100.00;100488.06;5022777;28;20487;-68
2023/11/07 02:14:03;;;;;;;4.73;1.47;;;;;;;7.41;100.00;100482.59;5010873;28;20060;-68
2023/11/07 02:16:33;;;;;;;5.90;1.20;;;;;;;7.38;100.00;100487.22;5024608;28;20073;-68
2023/11/07 02:18:59;;;;;;;7.45;1.63;;;;;;;7.35;100.00;100485.75;5029451;28;20126;-67
2023/11/07 02:21:25;;;;;;;8.48;1.30;;;;;;;7.38;100.00;100479.47;5010691;28;20029;-68
2023/11/07 02:23:51;;;;;;;6.90;1.35;;;;;;;7.43;100.00;100479.06;5030166;28;20032;-68
2023/11/07 02:26:17;;;;;;;7.53;1.33;;;;;;;7.37;100.00;100478.69;5028731;28;20029;-68
2023/11/07 02:28:46;;;;;;;5.88;1.63;;;;;;;7.37;100.00;100468.34;5027459;28;20036;-68
2023/11/07 02:31:12;;;;;;;6.22;1.40;;;;;;;7.37;100.00;100478.69;5043693;28;20285;-67
2023/11/07 02:33:37;;;;;;;4.25;1.30;;;;;;;7.38;100.00;100471.75;5027699;28;20037;-68
2023/11/07 02:36:03;;;;;;;3.97;1.58;;;;;;;7.39;100.00;100470.81;5015003;28;20033;-68
2023/11/07 02:38:29;;;;;;;5.47;1.52;;;;;;;7.43;100.00;100473.91;5027919;28;20037;-68
2023/11/07 02:40:55;;;;;;;7.30;1.45;;;;;;;7.43;100.00;100468.75;5009648;28;20044;-68
2023/11/07 02:43:20;;;;;;;3.42;1.15;;;;;;;7.42;100.00;100467.91;5027325;28;20064;-68
2023/11/07 02:45:49;;;;;;;4.93;1.45;;;;;;;7.41;100.00;100461.94;5009768;28;20045;-68
2023/11/07 02:48:14;;;;;;;15.25;1.45;;;;;;;7.44;100.00;100478.09;5041149;28;20046;-68
2023/11/07 02:50:40;;;;;;;6.05;1.38;;;;;;;7.39;100.00;100463.88;5026959;28;20405;-68
2023/11/07 02:53:05;;;;;;;8.05;1.67;;;;;;;7.37;100.00;100459.81;5026794;28;20116;-68
2023/11/07 02:55:32;;;;;;;2.90;1.58;;;;;;;7.39;100.00;100468.22;5027077;28;20036;-68
2023/11/07 02:57:58;;;;;;;7.28;1.30;;;;;;;7.47;100.00;100470.09;5023279;28;20519;-68
2023/11/07 03:00:23;;;;;;;6.22;1.50;;;;;;;7.43;100.00;100471.34;5012591;28;20029;-68
2023/11/07 03:02:49;;;;;;;3.20;0.95;;;;;;;7.43;100.00;100477.28;5010307;28;20036;-67
2023/11/07 03:05:15;;;;;;;6.15;1.42;;;;;;;7.41;100.00;100479.22;5040082;28;20060;-67
2023/11/07 03:07:40;;;;;;;4.20;1.50;;;;;;;7.43;100.00;100479.88;5024639;28;20766;-67
2023/11/07 03:10:07;;;;;;;6.55;1.10;;;;;;;7.31;100.00;100484.41;5019256;28;20037;-68
2023/11/07 03:12:32;;;;;;;6.85;1.48;;;;;;;7.39;100.00;100481.13;4995464;28;20048;-68
2023/11/07 03:14:58;;;;;;;4.30;1.13;;;;;;;7.30;100.00;100484.56;5003152;28;20617;-67
2023/11/07 03:17:24;;;;;;;6.20;1.25;;;;;;;7.21;100.00;100481.88;5025233;28;20033;-67
2023/11/07 03:19:53;;;;;;;3.80;1.30;;;;;;;7.21;100.00;100486.19;5008288;28;20033;-68
2023/11/07 03:22:21;;;;;;;9.05;1.40;;;;;;;7.19;100.00;100488.13;5007076;28;20029;-67
2023/11/07 03:24:48;;;;;;;6.53;1.20;;;;;;;7.39;100.00;100478.53;5007787;28;20510;-68
2023/11/07 03:27:14;;;;;;;8.00;1.85;;;;;;;7.35;100.00;100480.59;5009174;28;20042;-68
2023/11/07 03:29:39;;;;;;;7.03;1.20;;;;;;;7.48;100.00;100474.28;5024210;28;20037;-68
2023/11/07 03:32:05;;;;;;;10.98;1.17;;;;;;;7.41;100.00;100481.78;4993812;28;20037;-67
2023/11/07 03:34:31;;;;;;;2.88;1.23;;;;;;;7.36;100.00;100478.81;5008163;28;20045;-67
2023/11/07 03:36:57;;;;;;;5.93;1.38;;;;;;;7.34;100.00;100467.84;5021973;28;20049;-68
2023/11/07 03:39:22;;;;;;;6.82;1.33;;;;;;;7.27;100.00;100474.50;4991633;28;20034;-68
2023/11/07 03:41:48;;;;;;;8.32;1.10;;;;;;;7.29;100.00;100485.50;5005415;28;20041;-68
2023/11/07 03:44:13;;;;;;;6.88;1.40;;;;;;;7.24;100.00;100487.72;5007341;28;20057;-68
2023/11/07 03:46:39;;;;;;;4.78;1.10;;;;;;;7.35;100.00;100483.16;5023645;28;20041;-68
2023/11/07 03:49:05;;;;;;;5.30;1.00;;;;;;;7.24;100.00;100480.78;5021237;28;20480;-68
2023/11/07 03:51:30;;;;;;;5.65;1.10;;;;;;;7.21;100.00;100491.38;5006215;28;20033;-68
2023/11/07 03:53:56;;;;;;;4.65;1.10;;;;;;;7.33;100.00;100486.84;4996311;28;20091;-68
2023/11/07 03:56:22;;;;;;;5.60;0.98;;;;;;;7.41;100.00;100485.16;5015933;28;20124;-68
2023/11/07 03:58:48;;;;;;;5.55;1.35;;;;;;;7.40;100.00;100483.56;5008606;28;20044;-68
2023/11/07 04:01:13;;;;;;;4.95;1.17;;;;;;;7.49;100.00;100489.63;5035148;28;20048;-67
2023/11/07 04:03:39;;;;;;;8.07;1.23;;;;;;;7.46;100.00;100482.19;5041888;28;20029;-68
2023/11/07 04:06:05;;;;;;;3.67;1.13;;;;;;;7.33;100.00;100485.09;5011452;28;20037;-67
2023/11/07 04:08:30;;;;;;;3.58;1.10;;;;;;;7.31;100.00;100492.16;5006446;28;20036;-68
2023/11/07 04:10:59;;;;;;;5.57;1.23;;;;;;;7.28;100.00;100495.00;5020219;28;20048;-68
2023/11/07 04:13:24;;;;;;;2.97;1.05;;;;;;;7.33;100.00;100499.75;5004345;28;20033;-68
2023/11/07 04:15:49;;;;;;;3.55;0.98;;;;;;;7.38;100.00;100500.97;5018793;28;20045;-68
2023/11/07 04:18:15;;;;;;;3.72;1.98;;;;;;;7.36;100.00;100509.78;5008651;28;20083;-68
2023/11/07 04:20:42;;;;;;;6.13;1.10;;;;;;;7.29;100.00;100504.38;5023072;28;20045;-68
2023/11/07 04:23:10;;;;;;;2.05;1.08;;;;;;;7.31;100.00;100509.38;5021942;28;20084;-68
2023/11/07 04:25:36;;;;;;;3.03;1.00;;;;;;;7.40;100.00;100513.69;5027773;28;20029;-68
2023/11/07 04:28:03;;;;;;;3.50;0.95;;;;;;;7.37;100.00;100506.25;5027229;28;20036;-68
2023/11/07 04:30:29;;;;;;;5.07;1.20;;;;;;;7.40;100.00;100511.94;5028865;28;20033;-68
2023/11/07 04:32:54;;;;;;;3.13;1.20;;;;;;;7.59;100.00;100505.88;5019746;28;20120;-68
2023/11/07 04:35:20;;;;;;;3.58;1.20;;;;;;;7.58;100.00;100506.81;5024772;28;20495;-68
2023/11/07 04:37:45;;;;;;;5.97;1.23;;;;;;;7.57;100.00;100506.97;4991997;28;20088;-68
2023/11/07 04:40:11;;;;;;;5.93;1.10;;;;;;;7.63;100.00;100503.81;5011575;28;20044;-67
2023/11/07 04:42:36;;;;;;;3.85;1.05;;;;;;;7.74;100.00;100503.63;5041513;28;20115;-67
2023/11/07 04:45:03;;;;;;;5.28;1.98;;;;;;;7.67;100.00;100506.94;5010383;28;20067;-68
2023/11/07 04:47:28;;;;;;;4.72;1.40;;;;;;;7.66;100.00;100508.69;5039460;28;20041;-68
2023/11/07 04:49:58;;;;;;;5.53;1.42;;;;;;;7.73;100.00;100508.94;5021134;28;20052;-68
2023/11/07 04:52:23;;;;;;;8.07;1.20;;;;;;;7.68;100.00;100498.22;5007021;28;20041;-68
2023/11/07 04:54:49;;;;;;;1.80;1.02;;;;;;;7.71;100.00;100503.91;4986221;28;20044;-68
2023/11/07 04:57:15;;;;;;;3.25;1.13;;;;;;;7.71;100.00;100496.16;5009263;28;20091;-68
2023/11/07 04:59:41;;;;;;;8.85;1.60;;;;;;;7.74;100.00;100500.22;4992631;28;20531;-68
2023/11/07 05:02:07;;;;;;;4.10;1.25;;;;;;;7.82;100.00;100494.31;5022974;28;20108;-68
2023/11/07 05:04:33;;;;;;;6.85;1.30;;;;;;;7.73;100.00;100498.59;5008437;28;20041;-69
2023/11/07 05:06:59;;;;;;;6.88;1.15;;;;;;;7.68;100.00;100504.19;5005745;28;20605;-68
2023/11/07 05:09:25;;;;;;;7.13;1.50;;;;;;;7.70;100.00;100497.09;5042592;28;20150;-68
2023/11/07 05:11:51;;;;;;;6.13;1.48;;;;;;;7.73;100.00;100498.59;5023611;28;20041;-68
2023/11/07 05:14:16;;;;;;;3.20;1.23;;;;;;;7.71;100.00;100496.16;5005612;28;20051;-68
2023/11/07 05:16:42;;;;;;;4.55;1.00;;;;;;;7.73;100.00;100496.03;5043193;28;20048;-68
2023/11/07 05:19:08;;;;;;;6.10;1.30;;;;;;;7.78;100.00;100494.63;5038382;28;20033;-68
2023/11/07 05:21:34;;;;;;;11.13;1.45;;;;;;;7.74;100.00;100500.22;5024015;28;20080;-68
2023/11/07 05:24:02;;;;;;;4.78;1.67;;;;;;;7.82;100.00;100497.75;5042503;28;20094;-68
2023/11/07 05:26:28;;;;;;;6.38;1.70;;;;;;;7.75;100.00;100494.09;5023819;28;20419;-68
2023/11/07 05:28:54;;;;;;;3.78;1.35;;;;;;;7.77;100.00;100499.94;5043018;28;20044;-68
2023/11/07 05:31:19;;;;;;;5.97;1.30;;;;;;;7.74;100.00;100501.06;5017660;28;20037;-68
2023/11/07 05:33:45;;;;;;;3.88;1.42;;;;;;;7.75;100.00;100504.44;5022533;28;20026;-68
2023/11/07 05:36:11;;;;;;;6.68;1.58;;;;;;;7.73;100.00;100514.91;5028056;28;20025;-68
2023/11/07 05:38:37;;;;;;;6.20;1.30;;;;;;;7.68;100.00;100511.13;5022516;28;20468;-68
2023/11/07 05:41:02;;;;;;;6.22;1.23;;;;;;;7.69;100.00;100510.19;5004333;28;20585;-68
2023/11/07 05:43:28;;;;;;;5.47;1.95;;;;;;;7.74;100.00;100513.13;5023814;28;20041;-68
2023/11/07 05:45:53;;;;;;;7.32;1.63;;;;;;;7.82;100.00;100505.50;5019346;28;20457;-68
2023/11/07 05:48:24;;;;;;;3.53;1.25;;;;;;;7.78;100.00;100509.31;5021026;28;20121;-68
2023/11/07 05:50:50;;;;;;;4.68;1.70;;;;;;;7.87;100.00;100513.59;4987578;28;20927;-68
2023/11/07 05:53:19;;;;;;;4.78;1.30;;;;;;;7.78;100.00;100510.13;5021846;28;20033;-69
2023/11/07 05:55:47;;;;;;;7.20;1.25;;;;;;;7.80;100.00;100503.03;5021715;28;20503;-68
2023/11/07 05:58:13;;;;;;;2.45;1.25;;;;;;;7.85;100.00;100507.75;5004439;28;20076;-68
2023/11/07 06:00:39;;;;;;;6.13;1.42;;;;;;;7.88;100.00;100507.47;4992014;28;20056;-68
2023/11/07 06:03:05;;;;;;;6.55;1.75;;;;;;;7.82;100.00;100509.81;5022724;28;20034;-68
2023/11/07 06:05:30;;;;;;;3.83;1.10;;;;;;;7.87;100.00;100505.84;5023685;28;20037;-68
2023/11/07 06:07:58;;;;;;;2.63;1.20;;;;;;;7.89;100.00;100503.94;5022610;28;20029;-68
2023/11/07 06:10:24;;;;;;;8.73;1.50;;;;;;;7.83;100.00;100517.41;5022525;28;20037;-69
2023/11/07 06:12:50;;;;;;;6.72;1.00;;;;;;;7.91;100.00;100514.09;4996110;28;20044;-69
2023/11/07 06:15:15;;;;;;;5.40;1.83;;;;;;;7.83;100.00;100520.00;5006271;28;20047;-68
2023/11/07 06:17:40;;;;;;;3.15;1.10;;;;;;;7.94;100.00;100524.97;5024983;28;20056;-68
2023/11/07 06:20:08;;;;;;;3.47;1.35;;;;;;;7.81;100.00;100524.50;4994056;28;20056;-68
2023/11/07 06:22:34;;;;;;;4.93;3.33;;;;;;;7.77;100.00;100526.56;5009570;28;20228;-69
2023/11/07 06:25:00;;;;;;;4.95;1.88;;;;;;;7.76;100.00;100521.53;4994019;28;20045;-70
2023/11/07 06:27:26;;;;;;;11.88;5.50;;;;;;;7.82;100.00;100525.31;5005345;28;20263;-68
2023/11/07 06:29:52;;;;;;;30.13;13.60;;;;;;;7.75;100.00;100525.09;5023469;28;20041;-68
2023/11/07 06:32:18;;;;;;;5.05;2.05;;;;;;;7.72;100.00;100530.53;5024790;28;20056;-68
2023/11/07 06:34:43;;;;;;;8.23;4.57;;;;;;;7.77;100.00;100529.13;5028814;28;20032;-68
2023/11/07 06:37:09;;;;;;;9.82;5.93;;;;;;;7.67;100.00;100530.16;5027923;28;20037;-68
2023/11/07 06:39:35;;;;;;;3.90;1.70;;;;;;;7.77;100.00;100534.28;5022997;28;20030;-69
2023/11/07 06:42:01;;;;;;;2.50;1.15;;;;;;;7.85;100.00;100533.56;4992417;28;20092;-68
2023/11/07 06:44:27;;;;;;;21.83;11.90;;;;;;;7.76;100.00;100537.00;5003774;28;21323;-68
2023/11/07 06:46:53;;;;;;;5.63;1.80;;;;;;;7.71;100.00;100539.25;5023032;28;20037;-68
2023/11/07 06:49:19;;;;;;;4.32;1.88;;;;;;;7.74;100.00;100539.75;5009998;28;20049;-68
2023/11/07 06:51:45;;;;;;;4.00;1.63;;;;;;;7.71;100.00;100531.50;5023489;28;20049;-69
2023/11/07 06:54:10;;;;;;;6.50;2.88;;;;;;;7.72;100.00;100538.25;5009279;28;20249;-68
2023/11/07 06:56:37;;;;;;;6.00;1.50;;;;;;;7.65;100.00;100543.19;5023090;28;20088;-68
2023/11/07 06:59:03;;;;;;;4.63;2.40;;;;;;;7.65;100.00;100548.38;5005258;28;20380;-69
2023/11/07 07:01:28;;;;;;;3.67;1.90;;;;;;;7.71;100.00;100549.56;5004967;28;20160;-68
2023/11/07 07:03:54;;;;;;;30.90;16.85;;;;;;;7.65;100.00;100550.13;4987636;28;20397;-68
2023/11/07 07:06:23;;;;;;;20.75;13.70;;;;;;;7.64;100.00;100561.41;5006163;28;20037;-69
2023/11/07 07:08:49;;;;;;;5.60;2.70;;;;;;;7.68;100.00;100555.81;5021061;28;20025;-68
2023/11/07 07:11:14;;;;;;;8.23;3.33;;;;;;;7.87;100.00;100552.31;5022255;28;20042;-68
2023/11/07 07:13:40;;;;;;;8.82;2.45;;;;;;;7.87;100.00;100554.91;5019542;28;20045;-68
2023/11/07 07:16:06;;;;;;;7.80;3.90;;;;;;;7.94;100.00;100552.56;5020546;28;20044;-68
2023/11/07 07:18:39;;;;;;;2.35;1.00;;;;;;;8.00;100.00;100559.72;5027969;28;20033;-68
2023/11/07 07:21:06;;;;;;;6.40;2.10;;;;;;;8.01;100.00;100558.78;5042104;28;20451;-68
2023/11/07 07:23:35;;;;;;;6.45;3.45;;;;;;;8.06;100.00;100560.91;5043416;28;20036;-68
2023/11/07 07:26:07;;;;;;;5.18;2.45;;;;;;;8.10;100.00;100565.66;5025103;28;20041;-69
2023/11/07 07:28:35;;;;;;;4.63;2.50;;;;;;;8.10;100.00;100575.16;5042103;28;20479;-68
2023/11/07 07:31:06;;;;;;;20.42;10.35;;;;;;;8.14;100.00;100573.94;5039734;28;20033;-68
2023/11/07 07:33:36;;;;;;;3.95;2.00;;;;;;;8.23;100.00;100564.47;5026717;28;20037;-68
2023/11/07 07:36:04;;;;;;;4.00;1.40;;;;;;;8.13;100.00;100567.94;5043328;28;20434;-68
2023/11/07 07:38:31;;;;;;;1.65;0.90;;;;;;;8.24;100.00;100568.69;5024426;28;20021;-68
2023/11/07 07:40:58;;;;;;;2.33;1.10;;;;;;;8.34;100.00;100577.19;5041612;28;20033;-68
2023/11/07 07:43:23;;;;;;;2.22;1.55;;;;;;;8.30;100.00;100575.84;5045022;28;20102;-69
2023/11/07 07:45:50;;;;;;;4.38;2.00;;;;;;;8.36;100.00;100570.94;5040392;28;20049;-68
2023/11/07 07:48:17;;;;;;;7.00;1.42;;;;;;;8.33;100.00;100580.75;5011354;28;20029;-68
2023/11/07 07:50:46;;;;;;;3.00;1.45;;;;;;;8.26;100.00;100579.69;5020038;28;20483;-68
2023/11/07 07:53:15;;;;;;;3.15;1.55;;;;;;;8.31;100.00;100583.47;5026750;28;20541;-68
2023/11/07 07:55:44;;;;;;;6.72;3.25;;;;;;;8.39;100.00;100580.16;5033088;28;20041;-68
2023/11/07 07:58:11;;;;;;;3.97;1.45;;;;;;;8.52;100.00;100575.44;5025588;28;20029;-68
2023/11/07 08:00:37;;;;;;;3.17;1.20;;;;;;;8.55;100.00;100587.25;5004532;28;20033;-68
2023/11/07 08:03:11;;;;;;;2.55;1.40;;;;;;;8.67;100.00;100599.00;5009464;28;20033;-68
2023/11/07 08:05:39;;;;;;;2.35;1.10;;;;;;;8.74;100.00;100587.13;5002979;28;20034;-68
2023/11/07 08:08:06;;;;;;;7.78;1.75;;;;;;;8.83;100.00;100584.59;5020444;28;20075;-68
2023/11/07 08:10:32;;;;;;;2.35;1.30;;;;;;;8.81;100.00;100594.28;5011450;28;20483;-68
2023/11/07 08:12:57;;;;;;;2.90;1.08;;;;;;;8.75;100.00;100595.69;5023606;28;20067;-68
2023/11/07 08:15:26;;;;;;;5.38;1.40;;;;;;;8.73;100.00;100598.41;5004617;28;20539;-68
2023/11/07 08:17:53;;;;;;;6.22;1.67;;;;;;;8.69;100.00;100611.78;5007273;28;20029;-68
2023/11/07 08:20:22;;;;;;;5.07;2.20;;;;;;;8.69;100.00;100602.25;5018717;28;20140;-68
2023/11/07 08:22:48;;;;;;;4.97;1.73;;;;;;;8.89;100.00;100599.50;5003118;28;20116;-69
2023/11/07 08:25:17;;;;;;;2.83;1.50;;;;;;;8.86;100.00;100603.19;5004698;28;20042;-69
2023/11/07 08:27:48;;;;;;;6.45;2.58;;;;;;;8.85;100.00;100605.94;5003737;28;20026;-69
2023/11/07 08:30:22;;;;;;;5.38;1.80;;;;;;;8.86;100.00;100608.38;5024536;28;20052;-68
2023/11/07 08:32:49;;;;;;;7.70;2.75;;;;;;;8.77;100.00;100609.25;5019291;28;21848;-69
2023/11/07 08:35:23;;;;;;;5.43;2.08;;;;;;;8.85;100.00;100614.50;4999920;28;20049;-69
2023/11/07 08:37:52;;;;;;;7.50;3.97;;;;;;;8.83;100.00;100620.78;5006660;28;20392;-69
2023/11/07 08:40:20;;;;;;;10.50;4.25;;;;;;;8.99;100.00;100620.94;5003880;28;20488;-68
2023/11/07 08:42:48;;;;;;;7.38;2.53;;;;;;;8.98;100.00;100621.88;5019437;28;20554;-68
2023/11/07 08:45:15;;;;;;;6.85;1.95;;;;;;;9.09;100.00;100631.19;5024505;28;20033;-68
2023/11/07 08:47:59;;;;;;;3.72;1.48;;;;;;;9.18;100.00;100637.25;5004014;28;20132;-69
2023/11/07 08:50:25;;;;;;;9.32;1.60;;;;;;;9.25;100.00;100646.00;5006291;28;20033;-69
2023/11/07 08:52:51;;;;;;;6.13;2.10;;;;;;;9.13;100.00;100648.03;5004060;28;20380;-68
2023/11/07 08:55:18;;;;;;;2.08;1.10;;;;;;;9.19;100.00;100652.59;5018698;28;20129;-69
2023/11/07 08:57:44;;;;;;;1.60;0.95;;;;;;;9.14;100.00;100647.88;5020308;28;20026;-68
2023/11/07 09:00:21;;;;;;;5.45;1.30;;;;;;;9.21;100.00;100657.63;4984264;28;20037;-69
2023/11/07 09:02:48;;;;;;;6.93;1.27;;;;;;;9.20;100.00;100646.47;4987164;28;20046;-68
2023/11/07 09:05:14;;;;;;;6.45;2.50;;;;;;;9.37;100.00;100651.75;5022803;28;20125;-69
2023/11/07 09:07:40;;;;;;;5.47;2.45;;;;;;;9.35;100.00;100660.47;5023551;28;20120;-69
2023/11/07 09:10:11;;;;;;;6.53;3.53;;;;;;;9.30;100.00;100659.31;5021738;28;20063;-69
2023/11/07 09:12:37;;;;;;;9.32;5.93;;;;;;;9.24;100.00;100658.13;5017693;28;20042;-68
2023/11/07 09:15:05;;;;;;;7.30;4.05;;;;;;;9.29;100.00;100668.84;4990593;28;20065;-69
2023/11/07 09:17:34;;;;;;;4.18;2.78;;;;;;;9.36;100.00;100661.28;5008219;28;20044;-69
2023/11/07 09:20:02;;;;;;;6.28;2.45;;;;;;;9.40;100.00;100661.78;4990737;28;20044;-69
2023/11/07 09:22:28;;;;;;;9.85;2.40;;;;;;;9.51;100.00;100662.38;5025358;28;20029;-68
2023/11/07 09:24:54;;;;;;;4.32;1.23;;;;;;;9.62;100.00;100669.06;5008686;28;20407;-69
2023/11/07 09:27:22;;;;;;;3.95;1.92;;;;;;;9.78;100.00;100664.97;5027199;28;20045;-68
2023/11/07 09:29:48;;;;;;;4.70;1.60;;;;;;;9.79;100.00;100658.78;5035925;28;20036;-68
2023/11/07 09:32:13;;;;;;;7.68;2.80;;;;;;;9.74;100.00;100677.41;5009980;28;20400;-68
2023/11/07 09:34:42;;;;;;;4.38;1.70;;;;;;;9.72;100.00;100676.75;5020260;28;20053;-68
2023/11/07 09:37:07;;;;;;;10.48;2.25;;;;;;;9.78;100.00;100678.72;5019981;28;20021;-68
2023/11/07 09:39:34;;;;;;;6.35;1.65;;;;;;;9.88;100.00;100668.22;5019250;28;21285;-69
2023/11/07 09:41:59;;;;;;;4.72;2.08;;;;;;;9.94;100.00;100670.19;5026928;28;20045;-68
2023/11/07 09:44:25;;;;;;;8.52;2.33;;;;;;;9.92;100.00;100672.13;5023654;28;20029;-69
2023/11/07 09:46:51;;;;;;;9.05;3.80;;;;;;;9.96;100.00;100670.84;5012685;28;20052;-68
2023/11/07 09:49:17;;;;;;;9.98;3.15;;;;;;;9.98;100.00;100678.47;5023413;28;20041;-69
2023/11/07 09:51:46;;;;;;;11.20;3.78;;;;;;;10.03;100.00;100687.41;5025171;28;20091;-69
2023/11/07 09:54:18;;;;;;;7.80;1.58;;;;;;;10.12;99.36;100685.69;5010270;28;20065;-69
2023/11/07 09:56:47;;;;;;;5.80;1.35;;;;;;;10.18;99.59;100679.06;5021074;28;20042;-69
2023/11/07 09:59:22;;;;;;;6.85;2.22;;;;;;;10.25;98.57;100685.25;5014308;28;20040;-69
2023/11/07 10:01:49;;;;;;;8.32;1.85;;;;;;;10.22;97.98;100690.72;5023049;28;20109;-69
2023/11/07 10:04:15;;;;;;;4.20;1.30;;;;;;;10.32;97.50;100686.25;5028629;28;20028;-69
2023/11/07 10:06:43;;;;;;;9.55;1.65;;;;;;;10.38;97.53;100690.00;5021254;28;20033;-69
2023/11/07 10:09:14;;;;;;;5.60;1.23;;;;;;;10.46;97.98;100682.25;5027410;28;20494;-69
2023/11/07 10:11:49;;;;;;;6.60;1.58;;;;;;;10.66;95.77;100682.78;5021804;28;20514;-69
2023/11/07 10:14:20;;;;;;;6.35;1.52;;;;;;;10.70;94.74;100679.72;5024795;28;20041;-69
2023/11/07 10:16:56;;;;;;;7.28;1.70;;;;;;;10.73;95.46;100678.59;5007991;28;20124;-69
2023/11/07 10:19:25;;;;;;;4.07;1.10;;;;;;;10.66;95.24;100686.19;5023825;28;20091;-68
2023/11/07 10:21:52;;;;;;;8.52;2.00;;;;;;;10.81;94.03;100688.16;5007675;28;20357;-69
2023/11/07 10:24:18;;;;;;;8.18;1.40;;;;;;;10.70;93.73;100684.09;5007275;28;20037;-69
2023/11/07 10:26:53;;;;;;;4.97;1.50;;;;;;;10.42;94.21;100691.31;5008126;28;20033;-69
2023/11/07 10:29:25;;;;;;;6.32;1.38;;;;;;;10.41;95.34;100705.25;5006862;28;20049;-69
2023/11/07 10:32:09;;;;;;;3.63;1.00;;;;;;;10.43;95.21;100700.72;5002601;28;20042;-68
2023/11/07 10:34:36;;;;;;;4.88;1.33;;;;;;;10.55;94.89;100691.69;5006861;28;20484;-69
2023/11/07 10:37:04;;;;;;;6.90;1.38;;;;;;;10.56;94.74;100690.69;5007132;28;20026;-69
2023/11/07 10:39:32;;;;;;;7.45;1.90;;;;;;;10.49;95.17;100690.53;5005295;28;20033;-69
2023/11/07 10:42:16;;;;;;;6.75;1.35;;;;;;;10.46;95.39;100695.22;5004186;28;20053;-69
2023/11/07 10:44:43;;;;;;;6.18;1.17;;;;;;;10.48;94.77;100696.69;5022884;28;20061;-69
2023/11/07 10:47:09;;;;;;;6.13;1.75;;;;;;;10.57;95.14;100689.75;5025666;28;20049;-69
2023/11/07 10:49:36;;;;;;;3.53;1.20;;;;;;;10.53;94.48;100685.84;5003493;28;20037;-68
2023/11/07 10:52:06;;;;;;;6.55;1.38;;;;;;;10.48;94.95;100694.09;5008701;28;20033;-68
2023/11/07 10:54:32;;;;;;;6.03;1.20;;;;;;;10.43;95.48;100698.13;5044619;28;20029;-69
2023/11/07 10:57:09;;;;;;;7.55;1.10;;;;;;;10.44;94.75;100699.75;5037226;28;20545;-68
2023/11/07 10:59:40;;;;;;;4.05;1.50;;;;;;;10.52;92.60;100692.78;5023484;28;20036;-69
2023/11/07 11:02:08;;;;;;;6.70;1.40;;;;;;;10.58;91.96;100691.34;5044258;28;20068;-69
2023/11/07 11:04:36;;;;;;;5.10;1.40;;;;;;;10.71;92.17;100689.09;5027640;28;20040;-69
2023/11/07 11:07:07;;;;;;;5.97;1.38;;;;;;;10.80;93.26;100692.53;5006212;28;20034;-69
2023/11/07 11:09:34;;;;;;;6.80;1.27;;;;;;;10.80;90.68;100695.13;5021684;28;20022;-69
2023/11/07 11:12:02;;;;;;;9.98;1.92;;;;;;;10.80;91.04;100691.72;5022233;28;20104;-69
2023/11/07 11:14:28;;;;;;;5.07;1.20;;;;;;;10.83;90.48;100684.44;5021338;28;20037;-69
2023/11/07 11:17:24;;;;;;;4.47;1.13;;;;;;;10.90;90.05;100677.63;5023163;28;20120;-69
2023/11/07 11:20:09;;;;;;;5.40;1.00;;;;;;;10.89;89.37;100675.22;4999859;28;20124;-69
2023/11/07 11:22:40;;;;;;;7.07;1.30;;;;;;;10.93;90.06;100679.09;5004546;28;20037;-68
2023/11/07 11:25:22;;;;;;;2.95;1.00;;;;;;;11.01;91.90;100675.69;5017890;28;20037;-69
2023/11/07 11:27:55;;;;;;;3.55;1.10;;;;;;;11.16;89.31;100666.28;5022414;28;20045;-69
2023/11/07 11:30:37;;;;;;;6.75;1.13;;;;;;;11.36;87.89;100671.97;4997189;28;20037;-69
2023/11/07 11:33:12;;;;;;;5.63;0.80;;;;;;;11.49;87.57;100676.66;5026375;28;20039;-69
2023/11/07 11:35:44;;;;;;;3.38;0.93;;;;;;;11.44;87.71;100678.94;5034395;28;20116;-69